createdAt,value
2016-10-05T03:01:13.675Z,51.83
2016-10-05T03:01:39.548Z,51.73
2016-10-05T03:02:05.255Z,51.83
2016-10-05T03:02:31.111Z,51.76
2016-10-05T03:02:56.806Z,51.83
2016-10-05T03:03:22.787Z,51.73
2016-10-05T03:03:48.475Z,51.64
2016-10-05T03:04:14.695Z,51.86
2016-10-05T03:04:40.555Z,51.73
2016-10-05T03:05:06.259Z,51.45
2016-10-05T03:05:31.931Z,51.54
2016-10-05T03:05:57.625Z,51.73
2016-10-05T03:06:23.261Z,51.73
2016-10-05T03:06:48.818Z,51.54
2016-10-05T03:07:14.391Z,51.73
2016-10-05T03:07:39.955Z,51.64
2016-10-05T03:08:05.599Z,51.73
2016-10-05T03:08:31.944Z,51.73
2016-10-05T03:08:57.594Z,52.02
2016-10-05T03:09:23.294Z,51.93
2016-10-05T03:09:48.865Z,51.83
2016-10-05T03:10:14.617Z,51.54
2016-10-05T03:10:40.213Z,51.83
2016-10-05T03:11:05.831Z,51.54
2016-10-05T03:11:31.453Z,51.54
2016-10-05T03:11:56.991Z,51.54
2016-10-05T03:12:22.701Z,51.93
2016-10-05T03:12:48.348Z,51.64
2016-10-05T03:13:13.918Z,51.64
2016-10-05T03:13:39.550Z,51.64
2016-10-05T03:14:05.080Z,51.73
2016-10-05T03:14:30.646Z,51.64
2016-10-05T03:14:56.242Z,51.83
2016-10-05T03:15:54.467Z,51.54
2016-10-05T03:16:20.009Z,51.73
2016-10-05T03:16:45.795Z,51.54
2016-10-05T03:17:11.428Z,51.73
2016-10-05T03:17:37.005Z,51.64
2016-10-05T03:18:02.685Z,51.73
2016-10-05T03:18:28.345Z,51.83
2016-10-05T03:18:53.930Z,51.64
2016-10-05T03:19:19.607Z,51.54
2016-10-05T03:19:45.182Z,51.54
2016-10-05T03:20:10.851Z,51.83
2016-10-05T03:20:36.515Z,51.83
2016-10-05T03:21:02.075Z,51.73
2016-10-05T03:21:27.722Z,51.83
2016-10-05T03:21:53.383Z,51.73
2016-10-05T03:22:18.892Z,51.73
2016-10-05T03:22:44.548Z,52.02
2016-10-05T03:23:10.088Z,51.83
2016-10-05T03:23:35.697Z,51.73
2016-10-05T03:24:01.264Z,51.83
2016-10-05T03:24:26.894Z,51.83
2016-10-05T03:24:52.464Z,51.54
2016-10-05T03:25:18.025Z,51.93
2016-10-05T03:25:43.688Z,51.64
2016-10-05T03:26:09.270Z,52.02
2016-10-05T03:26:34.947Z,51.83
2016-10-05T03:27:00.599Z,51.83
2016-10-05T03:27:26.183Z,52.12
2016-10-05T03:27:52.037Z,51.83
2016-10-05T03:28:17.655Z,51.64
2016-10-05T03:28:43.216Z,51.73
2016-10-05T03:29:08.807Z,51.83
2016-10-05T03:29:34.422Z,51.83
2016-10-05T03:29:59.978Z,51.93
2016-10-05T03:30:25.608Z,51.93
2016-10-05T03:30:51.213Z,51.93
2016-10-05T03:31:16.787Z,52.02
2016-10-05T03:31:42.347Z,52.02
2016-10-05T03:32:08.000Z,52.02
2016-10-05T03:32:33.620Z,51.83
2016-10-05T03:32:59.201Z,52.02
2016-10-05T03:33:24.771Z,52.02
2016-10-05T03:33:50.376Z,51.93
2016-10-05T03:34:15.959Z,51.73
2016-10-05T03:34:41.619Z,51.64
2016-10-05T03:35:07.203Z,51.73
2016-10-05T03:35:32.759Z,51.93
2016-10-05T03:35:58.327Z,51.93
2016-10-05T03:37:15.968Z,52.12
2016-10-05T03:37:41.535Z,52.02
2016-10-05T03:38:07.168Z,51.73
2016-10-05T03:38:32.810Z,51.93
2016-10-05T03:38:58.345Z,51.83
2016-10-05T03:39:24.116Z,51.93
2016-10-05T03:39:49.805Z,51.93
2016-10-05T03:40:15.864Z,51.83
2016-10-05T03:40:41.433Z,51.64
2016-10-05T03:41:07.777Z,51.73
2016-10-05T03:41:33.395Z,51.93
2016-10-05T03:41:58.955Z,52.02
2016-10-05T03:42:25.112Z,51.93
2016-10-05T03:42:50.710Z,52.02
2016-10-05T03:43:16.907Z,52.02
2016-10-05T03:43:42.464Z,52.02
2016-10-05T03:44:08.044Z,51.83
2016-10-05T03:44:34.193Z,51.64
2016-10-05T03:44:59.822Z,51.64
2016-10-05T03:45:26.065Z,52.02
2016-10-05T03:45:51.603Z,52.12
2016-10-05T03:46:17.840Z,51.93
2016-10-05T03:46:43.500Z,51.93
2016-10-05T03:47:09.105Z,51.93
2016-10-05T03:47:35.144Z,51.83
2016-10-05T03:48:00.697Z,51.93
2016-10-05T03:48:26.946Z,51.71
2016-10-05T03:48:52.506Z,52.22
2016-10-05T03:49:18.162Z,52.22
2016-10-05T03:49:44.443Z,51.83
2016-10-05T03:50:10.084Z,51.93
2016-10-05T03:50:36.106Z,52.12
2016-10-05T03:51:01.655Z,52.02
2016-10-05T03:51:27.885Z,52.12
2016-10-05T03:51:53.474Z,51.93
2016-10-05T03:52:19.149Z,52.12
2016-10-05T03:52:45.226Z,51.83
2016-10-05T03:53:10.784Z,52.02
2016-10-05T03:53:36.985Z,52.89
2016-10-05T03:54:02.574Z,53.34
2016-10-05T03:54:28.225Z,53.56
2016-10-05T03:54:54.375Z,53.46
2016-10-05T03:55:19.998Z,53.08
2016-10-05T03:55:46.187Z,52.89
2016-10-05T03:56:11.777Z,52.89
2016-10-05T03:56:37.997Z,52.98
2016-10-05T03:57:03.594Z,52.89
2016-10-05T03:57:29.274Z,53.08
2016-10-05T03:57:55.353Z,53.17
2016-10-05T03:58:20.905Z,52.4
2016-10-05T03:58:47.131Z,52.69
2016-10-05T03:59:12.682Z,52.5
2016-10-05T03:59:39.307Z,52.4
2016-10-05T04:00:04.911Z,52.79
2016-10-05T04:00:30.520Z,52.5
2016-10-05T04:00:56.323Z,52.67
2016-10-05T04:01:21.874Z,52.79
2016-10-05T04:01:48.056Z,52.6
2016-10-05T04:02:13.617Z,52.6
2016-10-05T04:02:39.213Z,52.6
2016-10-05T04:03:05.330Z,52.5
2016-10-05T04:03:30.882Z,52.6
2016-10-05T04:03:57.265Z,52.5
2016-10-05T04:04:23.086Z,52.69
2016-10-05T04:04:48.588Z,52.69
2016-10-05T04:05:14.568Z,52.4
2016-10-05T04:05:40.134Z,52.69
2016-10-05T04:06:06.438Z,52.5
2016-10-05T04:06:31.990Z,52.79
2016-10-05T04:06:58.172Z,52.48
2016-10-05T04:07:23.766Z,52.79
2016-10-05T04:07:49.336Z,52.6
2016-10-05T04:08:15.609Z,52.5
2016-10-05T04:08:41.227Z,52.79
2016-10-05T04:09:07.377Z,52.6
2016-10-05T04:09:32.937Z,52.5
2016-10-05T04:09:58.600Z,52.67
2016-10-05T04:10:24.664Z,52.69
2016-10-05T04:10:50.291Z,52.5
2016-10-05T04:11:16.456Z,52.67
2016-10-05T04:11:42.003Z,52.69
2016-10-05T04:12:08.239Z,52.76
2016-10-05T04:12:33.824Z,52.98
2016-10-05T04:12:59.496Z,52.79
2016-10-05T04:13:25.600Z,52.38
2016-10-05T04:13:51.179Z,52.67
2016-10-05T04:14:17.405Z,52.79
2016-10-05T04:14:42.974Z,52.69
2016-10-05T04:15:08.663Z,52.4
2016-10-05T04:15:34.705Z,52.48
2016-10-05T04:16:00.293Z,52.79
2016-10-05T04:16:26.480Z,52.89
2016-10-05T04:16:52.040Z,52.48
2016-10-05T04:17:18.292Z,52.6
2016-10-05T04:17:43.857Z,52.76
2016-10-05T04:18:09.528Z,52.57
2016-10-05T04:18:35.603Z,52.79
2016-10-05T04:19:01.168Z,52.48
2016-10-05T04:19:27.444Z,52.79
2016-10-05T04:19:53.012Z,52.76
2016-10-05T04:20:18.659Z,52.79
2016-10-05T04:20:44.859Z,52.57
2016-10-05T04:21:10.464Z,52.76
2016-10-05T04:21:36.637Z,52.6
2016-10-05T04:22:02.205Z,52.76
2016-10-05T04:22:28.477Z,52.67
2016-10-05T04:22:54.067Z,52.67
2016-10-05T04:23:19.696Z,52.48
2016-10-05T04:23:45.792Z,52.6
2016-10-05T04:24:11.382Z,52.79
2016-10-05T04:24:37.598Z,52.76
2016-10-05T04:25:03.286Z,52.67
2016-10-05T04:25:28.987Z,52.6
2016-10-05T04:25:54.965Z,52.67
2016-10-05T04:26:20.578Z,52.6
2016-10-05T04:26:47.561Z,52.76
2016-10-05T04:27:13.124Z,52.48
2016-10-05T04:27:38.809Z,52.76
2016-10-05T04:28:04.379Z,52.48
2016-10-05T04:28:29.985Z,52.67
2016-10-05T04:28:55.888Z,52.76
2016-10-05T04:29:21.441Z,52.76
2016-10-05T04:29:47.716Z,52.76
2016-10-05T04:30:13.355Z,52.48
2016-10-05T04:30:39.012Z,52.76
2016-10-05T04:31:04.998Z,52.48
2016-10-05T04:31:30.563Z,52.76
2016-10-05T04:31:56.897Z,52.67
2016-10-05T04:32:22.471Z,52.57
2016-10-05T04:32:48.632Z,52.76
2016-10-05T04:33:14.233Z,52.48
2016-10-05T04:33:39.913Z,52.48
2016-10-05T04:34:05.956Z,52.76
2016-10-05T04:34:31.524Z,52.67
2016-10-05T04:34:57.766Z,52.76
2016-10-05T04:35:23.322Z,52.57
2016-10-05T04:35:49.035Z,52.48
2016-10-05T04:36:15.132Z,52.67
2016-10-05T04:36:40.735Z,52.57
2016-10-05T04:37:06.941Z,52.76
2016-10-05T04:37:32.574Z,52.57
2016-10-05T04:37:58.679Z,52.48
2016-10-05T04:38:24.261Z,52.95
2016-10-05T04:38:49.863Z,52.38
2016-10-05T04:39:16.106Z,52.57
2016-10-05T04:39:41.709Z,52.76
2016-10-05T04:40:07.870Z,52.76
2016-10-05T04:40:33.417Z,52.76
2016-10-05T04:40:59.034Z,52.86
2016-10-05T04:41:25.230Z,52.86
2016-10-05T04:41:50.832Z,53.05
2016-10-05T04:42:17.049Z,52.86
2016-10-05T04:42:42.642Z,53.15
2016-10-05T04:43:08.787Z,52.86
2016-10-05T04:43:34.378Z,53.15
2016-10-05T04:43:59.984Z,53.15
2016-10-05T04:44:26.141Z,52.38
2016-10-05T04:44:51.698Z,52.86
2016-10-05T04:45:17.977Z,52.19
2016-10-05T04:45:43.546Z,52.67
2016-10-05T04:46:09.190Z,53.53
2016-10-05T04:46:35.276Z,53.63
2016-10-05T04:47:00.917Z,54.21
2016-10-05T04:47:27.114Z,54.78
2016-10-05T04:47:52.692Z,55.16
2016-10-05T04:48:18.893Z,54.68
2016-10-05T04:48:44.487Z,55.07
2016-10-05T04:49:10.105Z,55
2016-10-05T04:49:36.212Z,55
2016-10-05T04:50:01.796Z,54.39
2016-10-05T04:50:28.042Z,54.49
2016-10-05T04:50:53.610Z,54.71
2016-10-05T04:51:19.235Z,54.52
2016-10-05T04:51:45.380Z,54.68
2016-10-05T04:52:10.995Z,54.52
2016-10-05T04:52:37.159Z,54.58
2016-10-05T04:53:02.745Z,54.58
2016-10-05T04:53:29.019Z,54.42
2016-10-05T04:53:54.627Z,54.71
2016-10-05T04:54:20.288Z,54.52
2016-10-05T04:54:46.323Z,55.07
2016-10-05T04:55:11.892Z,55.29
2016-10-05T04:55:38.173Z,55.67
2016-10-05T04:56:03.732Z,55.67
2016-10-05T04:56:29.365Z,55.57
2016-10-05T04:56:55.496Z,55.67
2016-10-05T04:57:21.099Z,55.86
2016-10-05T04:57:47.311Z,55.86
2016-10-05T04:58:13.140Z,55.38
2016-10-05T04:58:39.066Z,55.77
2016-10-05T04:59:04.619Z,55.1
2016-10-05T04:59:30.245Z,55.19
2016-10-05T04:59:56.445Z,55.29
2016-10-05T05:00:22.065Z,55.29
2016-10-05T05:00:48.189Z,55.29
2016-10-05T05:01:13.782Z,55.29
2016-10-05T05:01:39.381Z,55.29
2016-10-05T05:02:05.546Z,55.1
2016-10-05T05:02:31.195Z,55.29
2016-10-05T05:02:57.330Z,55.29
2016-10-05T05:03:23.035Z,55.67
2016-10-05T05:03:49.169Z,55.86
2016-10-05T05:04:14.718Z,55.96
2016-10-05T05:04:40.408Z,55.86
2016-10-05T05:05:06.512Z,55.67
2016-10-05T05:05:32.077Z,55.67
2016-10-05T05:05:58.342Z,55.67
2016-10-05T05:06:23.922Z,55.67
2016-10-05T05:06:49.525Z,55.86
2016-10-05T05:07:15.678Z,55.57
2016-10-05T05:07:41.280Z,55.86
2016-10-05T05:08:07.580Z,55.86
2016-10-05T05:08:33.240Z,55.86
2016-10-05T05:08:59.260Z,55.86
2016-10-05T05:09:24.831Z,55.86
2016-10-05T05:09:50.493Z,55.96
2016-10-05T05:10:16.643Z,55.77
2016-10-05T05:10:42.248Z,55.96
2016-10-05T05:11:08.418Z,55.77
2016-10-05T05:11:33.965Z,55.96
2016-10-05T05:11:59.630Z,56.15
2016-10-05T05:12:25.699Z,56.82
2016-10-05T05:12:51.363Z,56.53
2016-10-05T05:13:17.545Z,56.63
2016-10-05T05:13:43.109Z,56.73
2016-10-05T05:14:09.379Z,56.63
2016-10-05T05:14:35.007Z,56.44
2016-10-05T05:15:00.560Z,56.73
2016-10-05T05:15:26.757Z,56.44
2016-10-05T05:15:52.452Z,56.63
2016-10-05T05:16:18.502Z,56.53
2016-10-05T05:16:44.386Z,56.73
2016-10-05T05:17:09.937Z,56.44
2016-10-05T05:17:35.836Z,57.11
2016-10-05T05:18:01.462Z,56.82
2016-10-05T05:18:27.730Z,56.82
2016-10-05T05:18:53.306Z,56.44
2016-10-05T05:19:19.478Z,56.34
2016-10-05T05:19:45.057Z,56.82
2016-10-05T05:20:10.730Z,56.82
2016-10-05T05:20:36.726Z,56.82
2016-10-05T05:21:02.342Z,57.11
2016-10-05T05:21:28.573Z,56.73
2016-10-05T05:21:54.207Z,56.63
2016-10-05T05:22:19.819Z,56.92
2016-10-05T05:22:45.941Z,56.92
2016-10-05T05:23:11.576Z,57.11
2016-10-05T05:23:37.792Z,57.01
2016-10-05T05:24:03.328Z,56.92
2016-10-05T05:24:29.531Z,56.82
2016-10-05T05:24:55.110Z,57.11
2016-10-05T05:25:20.752Z,56.63
2016-10-05T05:25:46.999Z,56.44
2016-10-05T05:26:12.702Z,57.11
2016-10-05T05:26:38.722Z,56.92
2016-10-05T05:27:04.317Z,56.82
2016-10-05T05:27:29.969Z,56.82
2016-10-05T05:27:56.054Z,56.82
2016-10-05T05:28:21.633Z,56.34
2016-10-05T05:28:47.895Z,56.73
2016-10-05T05:29:13.447Z,56.63
2016-10-05T05:29:39.646Z,56.44
2016-10-05T05:30:05.228Z,56.82
2016-10-05T05:30:30.784Z,56.63
2016-10-05T05:30:56.977Z,56.63
2016-10-05T05:31:22.640Z,56.44
2016-10-05T05:31:48.742Z,56.63
2016-10-05T05:32:14.332Z,56.44
2016-10-05T05:32:39.908Z,56.63
2016-10-05T05:33:06.131Z,56.73
2016-10-05T05:33:31.753Z,56.73
2016-10-05T05:33:57.932Z,56.82
2016-10-05T05:34:23.493Z,56.63
2016-10-05T05:34:49.700Z,56.73
2016-10-05T05:35:15.283Z,56.82
2016-10-05T05:35:41.012Z,56.53
2016-10-05T05:36:07.112Z,56.73
2016-10-05T05:36:32.759Z,56.73
2016-10-05T05:36:58.873Z,56.63
2016-10-05T05:37:24.452Z,56.73
2016-10-05T05:37:50.022Z,56.73
2016-10-05T05:38:16.262Z,56.73
2016-10-05T05:38:41.924Z,56.53
2016-10-05T05:39:08.060Z,56.44
2016-10-05T05:39:33.614Z,56.53
2016-10-05T05:39:59.815Z,56.34
2016-10-05T05:40:25.419Z,56.24
2016-10-05T05:40:51.045Z,56.82
2016-10-05T05:41:17.219Z,56.82
2016-10-05T05:41:42.861Z,56.82
2016-10-05T05:42:09.061Z,56.44
2016-10-05T05:42:34.913Z,56.44
2016-10-05T05:43:00.488Z,56.15
2016-10-05T05:43:26.434Z,56.24
2016-10-05T05:43:52.001Z,56.73
2016-10-05T05:44:18.162Z,56.63
2016-10-05T05:44:43.729Z,56.73
2016-10-05T05:45:09.911Z,56.82
2016-10-05T05:45:35.529Z,56.82
2016-10-05T05:46:01.233Z,56.63
2016-10-05T05:46:27.275Z,56.63
2016-10-05T05:46:52.968Z,56.63
2016-10-05T05:47:19.038Z,56.63
2016-10-05T05:47:44.592Z,56.73
2016-10-05T05:48:10.214Z,56.53
2016-10-05T05:48:36.541Z,56.63
2016-10-05T05:49:02.219Z,56.44
2016-10-05T05:49:28.216Z,56.44
2016-10-05T05:49:53.815Z,56.05
2016-10-05T05:50:20.008Z,56.15
2016-10-05T05:50:45.594Z,56.05
2016-10-05T05:51:11.209Z,56.34
2016-10-05T05:51:37.359Z,56.34
2016-10-05T05:52:02.949Z,56.24
2016-10-05T05:52:29.180Z,56.24
2016-10-05T05:52:54.848Z,56.44
2016-10-05T05:53:20.544Z,56.44
2016-10-05T05:53:46.488Z,56.05
2016-10-05T05:54:12.087Z,56.05
2016-10-05T05:54:38.261Z,56.44
2016-10-05T05:55:03.833Z,56.05
2016-10-05T05:55:30.159Z,56.15
2016-10-05T05:55:55.740Z,56.05
2016-10-05T05:56:23.976Z,56.24
2016-10-05T05:56:50.352Z,56.15
2016-10-05T05:57:16.118Z,55.96
2016-10-05T05:57:41.565Z,56.15
2016-10-05T05:58:07.184Z,56.15
2016-10-05T05:58:32.771Z,56.15
2016-10-05T05:58:58.362Z,56.05
2016-10-05T05:59:23.953Z,55.86
2016-10-05T05:59:49.649Z,56.05
2016-10-05T06:00:15.324Z,55.96
2016-10-05T06:00:40.884Z,56.24
2016-10-05T06:01:49.305Z,55.96
2016-10-05T06:02:14.870Z,55.96
2016-10-05T06:02:40.456Z,56.05
2016-10-05T06:03:06.143Z,56.24
2016-10-05T06:03:31.693Z,56.05
2016-10-05T06:03:57.300Z,56.15
2016-10-05T06:04:22.870Z,56.05
2016-10-05T06:04:48.499Z,56.05
2016-10-05T06:05:14.101Z,55.77
2016-10-05T06:05:39.676Z,55.96
2016-10-05T06:06:05.341Z,55.96
2016-10-05T06:06:30.905Z,55.96
2016-10-05T06:07:34.590Z,55.77
2016-10-05T06:08:00.162Z,55.86
2016-10-05T06:08:25.739Z,55.77
2016-10-05T06:08:51.404Z,55.96
2016-10-05T06:09:16.958Z,55.96
2016-10-05T06:10:20.566Z,55.96
2016-10-05T06:10:46.181Z,55.96
2016-10-05T06:11:11.781Z,55.96
2016-10-05T06:11:37.460Z,55.77
2016-10-05T06:12:03.020Z,55.77
2016-10-05T06:12:28.674Z,55.86
2016-10-05T06:12:54.299Z,55.86
2016-10-05T06:13:19.862Z,55.77
2016-10-05T06:13:45.420Z,55.86
2016-10-05T06:14:11.005Z,55.67
2016-10-05T06:14:36.671Z,55.86
2016-10-05T06:15:02.305Z,55.77
2016-10-05T06:15:27.883Z,55.86
2016-10-05T06:15:53.536Z,55.86
2016-10-05T06:16:19.264Z,55.67
2016-10-05T06:16:44.852Z,55.67
2016-10-05T06:17:10.528Z,55.96
2016-10-05T06:17:36.091Z,56.05
2016-10-05T06:18:01.791Z,55.77
2016-10-05T06:18:27.490Z,55.77
2016-10-05T06:18:53.049Z,55.67
2016-10-05T06:19:19.352Z,55.67
2016-10-05T06:19:45.000Z,55.77
2016-10-05T06:20:10.673Z,55.67
2016-10-05T06:20:36.335Z,55.67
2016-10-05T06:21:01.816Z,55.67
2016-10-05T06:21:27.385Z,55.67
2016-10-05T06:21:52.955Z,55.51
2016-10-05T06:22:18.612Z,55.86
2016-10-05T06:22:44.187Z,55.77
2016-10-05T06:23:09.834Z,55.77
2016-10-05T06:23:35.489Z,55.77
2016-10-05T06:24:01.020Z,55.86
2016-10-05T06:24:27.174Z,55.67
2016-10-05T06:24:52.723Z,55.67
2016-10-05T06:25:18.267Z,55.6
2016-10-05T06:25:43.843Z,55.69
2016-10-05T06:26:09.442Z,55.67
2016-10-05T06:26:35.017Z,55.67
2016-10-05T06:27:00.574Z,55.51
2016-10-05T06:27:26.123Z,55.89
2016-10-05T06:27:51.753Z,55.77
2016-10-05T06:28:17.299Z,55.89
2016-10-05T06:28:42.908Z,55.86
2016-10-05T06:29:08.575Z,55.86
2016-10-05T06:29:34.118Z,55.79
2016-10-05T06:29:59.731Z,55.86
2016-10-05T06:30:25.283Z,55.89
2016-10-05T06:31:28.670Z,55.89
2016-10-05T06:31:54.314Z,55.69
2016-10-05T06:32:57.713Z,55.51
2016-10-05T06:33:23.282Z,55.69
2016-10-05T06:33:48.874Z,55.57
2016-10-05T06:34:14.583Z,55.86
2016-10-05T06:34:40.169Z,55.79
2016-10-05T06:35:05.792Z,55.86
2016-10-05T06:35:31.352Z,55.79
2016-10-05T06:35:56.973Z,55.6
2016-10-05T06:36:22.593Z,55.6
2016-10-05T06:36:48.211Z,55.69
2016-10-05T06:37:13.850Z,55.86
2016-10-05T06:37:39.433Z,55.69
2016-10-05T06:38:05.082Z,55.67
2016-10-05T06:38:30.733Z,55.79
2016-10-05T06:38:56.299Z,55.69
2016-10-05T06:39:22.047Z,55.69
2016-10-05T06:39:47.772Z,55.67
2016-10-05T06:40:13.360Z,55.79
2016-10-05T06:41:22.538Z,55.67
2016-10-05T06:41:48.244Z,55.6
2016-10-05T06:42:13.839Z,55.6
2016-10-05T06:42:39.394Z,55.79
2016-10-05T06:44:35.749Z,55.89
2016-10-05T06:45:01.327Z,55.89
2016-10-05T06:45:26.975Z,56.08
2016-10-05T06:45:52.550Z,55.89
2016-10-05T06:46:55.923Z,55.89
2016-10-05T06:47:21.514Z,55.79
2016-10-05T06:47:47.150Z,55.79
2016-10-05T06:48:12.774Z,55.79
2016-10-05T06:48:38.344Z,55.32
2016-10-05T06:49:03.986Z,55.51
2016-10-05T06:49:29.548Z,55.51
2016-10-05T06:49:55.214Z,55.22
2016-10-05T06:50:20.845Z,55.41
2016-10-05T06:50:46.427Z,55.41
2016-10-05T06:51:12.034Z,55.22
2016-10-05T06:51:37.595Z,55.32
2016-10-05T06:52:03.185Z,55.32
2016-10-05T06:52:28.834Z,55.32
2016-10-05T06:52:54.283Z,55.32
2016-10-05T06:53:19.887Z,55.41
2016-10-05T06:53:45.471Z,55.79
2016-10-05T06:54:11.100Z,55.32
2016-10-05T06:54:36.650Z,55.69
2016-10-05T06:55:02.239Z,55.51
2016-10-05T06:55:28.029Z,55.32
2016-10-05T06:55:53.597Z,55.79
2016-10-05T06:56:19.234Z,55.69
2016-10-05T06:56:44.842Z,55.41
2016-10-05T06:57:10.353Z,55.22
2016-10-05T06:57:35.951Z,55.32
2016-10-05T06:58:01.510Z,55.12
2016-10-05T06:58:27.186Z,55.22
2016-10-05T06:58:52.760Z,55.22
2016-10-05T06:59:18.382Z,55.12
2016-10-05T06:59:44.101Z,55.22
2016-10-05T07:00:09.666Z,55.12
2016-10-05T07:00:35.373Z,55.22
2016-10-05T07:01:01.001Z,55.12
2016-10-05T07:01:26.580Z,55.12
2016-10-05T07:01:52.167Z,55.12
2016-10-05T07:02:17.724Z,55.32
2016-10-05T07:02:43.303Z,55.32
2016-10-05T07:03:08.873Z,55.12
2016-10-05T07:03:34.449Z,55.12
2016-10-05T07:04:00.043Z,55.22
2016-10-05T07:04:26.483Z,55.32
2016-10-05T07:04:51.286Z,55.32
2016-10-05T07:05:16.893Z,55.12
2016-10-05T07:05:42.518Z,55.32
2016-10-05T07:06:08.104Z,55.32
2016-10-05T07:06:33.696Z,55.41
2016-10-05T07:06:59.361Z,55.32
2016-10-05T07:07:24.969Z,54.83
2016-10-05T07:07:50.581Z,55.41
2016-10-05T07:08:16.195Z,54.93
2016-10-05T07:08:41.753Z,55.22
2016-10-05T07:09:07.439Z,55.12
2016-10-05T07:09:33.117Z,55.22
2016-10-05T07:09:58.577Z,55.02
2016-10-05T07:10:24.215Z,55.12
2016-10-05T07:10:49.778Z,55.22
2016-10-05T07:11:15.406Z,55.22
2016-10-05T07:11:41.174Z,54.83
2016-10-05T07:12:06.743Z,55.32
2016-10-05T07:13:20.522Z,55.02
2016-10-05T07:14:13.691Z,55.12
2016-10-05T07:14:39.373Z,55.22
2016-10-05T07:15:04.961Z,54.93
2016-10-05T07:15:30.552Z,54.93
2016-10-05T07:15:56.165Z,55.22
2016-10-05T07:16:21.687Z,55.02
2016-10-05T07:16:47.278Z,55.32
2016-10-05T07:17:12.843Z,55.12
2016-10-05T07:17:38.554Z,54.93
2016-10-05T07:18:04.098Z,55.12
2016-10-05T07:18:29.710Z,55.12
2016-10-05T07:18:55.287Z,55.12
2016-10-05T07:19:20.840Z,55.12
2016-10-05T07:19:46.493Z,55.02
2016-10-05T07:20:12.084Z,55.32
2016-10-05T07:20:37.793Z,55.12
2016-10-05T07:21:03.433Z,55.02
2016-10-05T07:21:29.645Z,55.12
2016-10-05T07:21:55.218Z,54.93
2016-10-05T07:22:20.769Z,55.22
2016-10-05T07:22:46.368Z,54.93
2016-10-05T07:23:11.932Z,54.93
2016-10-05T07:23:37.594Z,54.83
2016-10-05T07:24:03.174Z,54.93
2016-10-05T07:24:28.813Z,54.93
2016-10-05T07:24:54.410Z,54.93
2016-10-05T07:25:20.112Z,55.02
2016-10-05T07:25:45.685Z,54.93
2016-10-05T07:26:11.288Z,55.02
2016-10-05T07:26:36.943Z,54.93
2016-10-05T07:27:02.661Z,55.02
2016-10-05T07:27:28.322Z,55.22
2016-10-05T07:27:53.901Z,55.22
2016-10-05T07:28:19.602Z,55.12
2016-10-05T07:28:45.185Z,55.12
2016-10-05T07:29:10.786Z,55.02
2016-10-05T07:29:36.382Z,55.41
2016-10-05T07:30:02.018Z,55.12
2016-10-05T07:30:27.745Z,55.22
2016-10-05T07:30:53.462Z,54.93
2016-10-05T07:31:19.045Z,55.32
2016-10-05T07:31:44.731Z,55.02
2016-10-05T07:32:10.298Z,55.41
2016-10-05T07:32:36.035Z,55.22
2016-10-05T07:33:01.615Z,55.41
2016-10-05T07:33:27.203Z,55.12
2016-10-05T07:33:52.845Z,55.41
2016-10-05T07:34:18.494Z,55.32
2016-10-05T07:34:43.996Z,55.12
2016-10-05T07:35:09.683Z,55.22
2016-10-05T07:35:35.256Z,55.02
2016-10-05T07:36:43.682Z,55.12
2016-10-05T07:37:09.244Z,55.22
2016-10-05T07:37:34.874Z,55.02
2016-10-05T07:38:00.431Z,55.12
2016-10-05T07:38:26.192Z,55.12
2016-10-05T07:38:51.834Z,54.93
2016-10-05T07:39:17.398Z,54.93
2016-10-05T07:39:43.061Z,55.02
2016-10-05T07:40:08.668Z,55.02
2016-10-05T07:40:34.229Z,55.02
2016-10-05T07:42:35.496Z,54.83
2016-10-05T07:43:01.146Z,54.93
2016-10-05T07:43:26.797Z,54.93
2016-10-05T07:43:52.342Z,54.83
2016-10-05T07:44:17.970Z,54.93
2016-10-05T07:44:43.521Z,54.74
2016-10-05T07:45:09.218Z,55.32
2016-10-05T07:45:34.884Z,54.64
2016-10-05T07:46:00.449Z,54.55
2016-10-05T07:46:26.048Z,54.55
2016-10-05T07:46:51.715Z,54.64
2016-10-05T07:47:17.195Z,54.83
2016-10-05T07:47:42.824Z,54.64
2016-10-05T07:48:08.396Z,54.55
2016-10-05T07:48:34.008Z,54.64
2016-10-05T07:48:59.769Z,54.55
2016-10-05T07:49:25.342Z,54.55
2016-10-05T07:49:50.971Z,54.45
2016-10-05T07:50:16.625Z,54.45
2016-10-05T07:50:42.253Z,54.74
2016-10-05T07:51:07.897Z,54.74
2016-10-05T07:51:33.531Z,54.74
2016-10-05T07:51:59.175Z,54.74
2016-10-05T07:52:24.832Z,54.55
2016-10-05T07:52:50.303Z,54.47
2016-10-05T07:53:15.901Z,54.64
2016-10-05T07:53:41.475Z,54.74
2016-10-05T07:54:07.151Z,54.77
2016-10-05T07:54:32.717Z,54.67
2016-10-05T07:54:58.355Z,54.77
2016-10-05T07:55:23.968Z,54.64
2016-10-05T07:55:49.545Z,54.55
2016-10-05T07:56:15.113Z,54.57
2016-10-05T07:56:40.670Z,54.57
2016-10-05T07:57:06.339Z,54.47
2016-10-05T07:57:32.017Z,54.47
2016-10-05T07:57:57.577Z,54.57
2016-10-05T07:58:23.201Z,54.19
2016-10-05T07:58:48.751Z,54.45
2016-10-05T07:59:14.387Z,54.28
2016-10-05T07:59:39.971Z,54.28
2016-10-05T08:00:05.501Z,54.57
2016-10-05T08:00:31.120Z,54.19
2016-10-05T08:00:56.670Z,54.19
2016-10-05T08:01:22.367Z,54.47
2016-10-05T08:01:47.931Z,54.09
2016-10-05T08:02:13.504Z,54.09
2016-10-05T08:02:39.795Z,54.19
2016-10-05T08:03:05.494Z,54.47
2016-10-05T08:03:31.092Z,54
2016-10-05T08:04:24.681Z,54.28
2016-10-05T08:05:32.402Z,54.19
2016-10-05T08:05:57.958Z,54.28
2016-10-05T08:06:23.544Z,54.28
2016-10-05T08:06:49.186Z,54
2016-10-05T08:07:14.766Z,54.28
2016-10-05T08:07:40.383Z,54.38
2016-10-05T08:08:05.967Z,54
2016-10-05T08:08:31.537Z,54.28
2016-10-05T08:08:57.126Z,54.09
2016-10-05T08:09:22.685Z,54.28
2016-10-05T08:09:48.327Z,54.38
2016-10-05T08:10:13.872Z,54.38
2016-10-05T08:10:39.532Z,54.38
2016-10-05T08:11:05.127Z,54.38
2016-10-05T08:11:30.731Z,54.09
2016-10-05T08:11:56.398Z,54.47
2016-10-05T08:12:22.171Z,54.28
2016-10-05T08:13:20.330Z,54.19
2016-10-05T08:13:45.906Z,54.19
2016-10-05T08:14:11.537Z,54.28
2016-10-05T08:14:37.199Z,54.19
2016-10-05T08:15:02.686Z,54.19
2016-10-05T08:15:28.631Z,54.28
2016-10-05T08:15:54.343Z,54.38
2016-10-05T08:16:19.871Z,54.38
2016-10-05T08:16:45.428Z,54.38
2016-10-05T08:17:10.979Z,54.47
2016-10-05T08:17:36.561Z,54.38
2016-10-05T08:18:02.120Z,54.57
2016-10-05T08:18:27.684Z,54.38
2016-10-05T08:18:53.259Z,54.57
2016-10-05T08:19:18.841Z,54.47
2016-10-05T08:19:44.580Z,54.19
2016-10-05T08:20:10.121Z,54.38
2016-10-05T08:20:35.699Z,54.09
2016-10-05T08:21:01.258Z,54.67
2016-10-05T08:21:26.812Z,54.57
2016-10-05T08:21:52.509Z,54.09
2016-10-05T08:22:18.077Z,54.67
2016-10-05T08:22:43.806Z,54.28
2016-10-05T08:23:09.442Z,54.19
2016-10-05T08:23:34.995Z,54.38
2016-10-05T08:24:00.721Z,54.28
2016-10-05T08:24:26.344Z,53.7
2016-10-05T08:24:51.923Z,54.09
2016-10-05T08:25:17.550Z,54
2016-10-05T08:25:43.116Z,53.9
2016-10-05T08:26:08.671Z,53.8
2016-10-05T08:26:34.231Z,53.9
2016-10-05T08:26:59.785Z,54
2016-10-05T08:27:25.379Z,53.9
2016-10-05T08:27:50.940Z,54.19
2016-10-05T08:28:16.557Z,53.9
2016-10-05T08:28:42.130Z,54
2016-10-05T08:29:07.775Z,53.9
2016-10-05T08:29:33.442Z,54
2016-10-05T08:29:59.094Z,53.52
2016-10-05T08:30:24.753Z,53.52
2016-10-05T08:30:50.416Z,54
2016-10-05T08:31:15.942Z,53.9
2016-10-05T08:31:41.599Z,53.61
2016-10-05T08:32:07.164Z,53.7
2016-10-05T08:32:32.811Z,53.52
2016-10-05T08:32:58.375Z,53.42
2016-10-05T08:33:23.938Z,53.7
2016-10-05T08:33:49.592Z,53.7
2016-10-05T08:34:15.168Z,54
2016-10-05T08:34:40.967Z,53.7
2016-10-05T08:35:06.653Z,53.61
2016-10-05T08:35:32.226Z,53.61
2016-10-05T08:35:57.912Z,53.52
2016-10-05T08:36:23.593Z,53.9
2016-10-05T08:36:49.159Z,53.61
2016-10-05T08:37:14.796Z,53.7
2016-10-05T08:37:40.387Z,53.7
2016-10-05T08:38:06.022Z,53.52
2016-10-05T08:38:31.692Z,53.7
2016-10-05T08:38:57.257Z,53.8
2016-10-05T08:39:22.858Z,53.7
2016-10-05T08:39:48.428Z,53.61
2016-10-05T08:40:14.083Z,53.61
2016-10-05T08:40:39.704Z,53.61
2016-10-05T08:42:15.413Z,53.61
2016-10-05T08:43:18.730Z,53.61
2016-10-05T08:43:44.275Z,53.61
2016-10-05T08:44:09.902Z,53.61
2016-10-05T08:44:35.453Z,54.19
2016-10-05T08:45:01.074Z,53.8
2016-10-05T08:45:26.690Z,54.31
2016-10-05T08:45:52.252Z,53.61
2016-10-05T08:46:17.806Z,54.19
2016-10-05T08:46:43.384Z,54.22
2016-10-05T08:47:09.051Z,54.22
2016-10-05T08:47:34.620Z,53.42
2016-10-05T08:48:00.178Z,53.64